createdAt,value
2018-12-26T00:03:56.132Z,-1.20
2018-12-26T00:28:09.497Z,-1.00
2018-12-26T00:46:34.272Z,-1.20
2018-12-26T01:26:19.266Z,-1.50
2018-12-26T01:50:27.980Z,-1.20
2018-12-26T02:31:47.175Z,-1.30
2018-12-26T02:45:59.805Z,-1.30
2018-12-26T03:53:29.836Z,-2.10
2018-12-26T04:20:31.722Z,-1.70
2018-12-26T04:26:32.613Z,-1.70
2018-12-26T04:45:06.414Z,-1.90
2018-12-26T04:51:03.119Z,-2.10
2018-12-26T08:24:56.648Z,-1.20
2018-12-26T08:39:09.075Z,-1.20
2018-12-26T08:48:33.646Z,-1.40
2018-12-26T08:51:14.855Z,-1.30
2018-12-26T08:56:59.797Z,-1.40
2018-12-26T08:59:40.415Z,-1.30
2018-12-26T09:36:39.470Z,-0.80
2018-12-26T09:39:20.246Z,-0.70
2018-12-26T15:13:33.125Z,0.20
2018-12-26T15:16:01.698Z,0.10
2018-12-26T15:18:31.200Z,0.10
2018-12-26T15:20:59.784Z,0.20
2018-12-26T15:23:28.362Z,0.10
2018-12-26T15:25:56.936Z,0.20
2018-12-26T15:28:25.556Z,0.20
2018-12-26T15:30:54.179Z,0.10
2018-12-26T15:33:22.741Z,0.10
2018-12-26T15:35:51.308Z,0.10
2018-12-26T15:38:19.899Z,0.10
2018-12-26T15:40:49.147Z,0.10
2018-12-26T15:43:17.862Z,0.10
2018-12-26T15:45:46.419Z,0.10
2018-12-26T15:48:15.000Z,0.00
2018-12-26T15:50:43.570Z,0.00
2018-12-26T15:53:12.135Z,0.00
2018-12-26T15:55:40.722Z,0.10
2018-12-26T15:58:09.293Z,0.10
2018-12-26T16:00:37.892Z,0.10
2018-12-26T16:03:06.535Z,0.10
2018-12-26T16:05:35.105Z,0.10
2018-12-26T16:08:03.664Z,0.00
2018-12-26T16:10:32.255Z,0.00
2018-12-26T16:13:00.840Z,0.10
2018-12-26T16:15:29.436Z,0.10
2018-12-26T16:17:58.040Z,0.10
2018-12-26T16:20:26.642Z,0.00
2018-12-26T16:22:55.208Z,0.10
2018-12-26T16:25:23.840Z,0.00
2018-12-26T16:27:52.440Z,0.00
2018-12-26T16:30:21.023Z,0.00
2018-12-26T16:32:49.588Z,0.00
2018-12-26T16:35:18.164Z,0.00
2018-12-26T16:37:46.766Z,0.00
2018-12-26T16:40:15.320Z,0.00
2018-12-26T16:42:43.884Z,0.00
2018-12-26T16:45:12.466Z,-0.10
2018-12-26T16:47:41.170Z,0.00
2018-12-26T16:50:14.031Z,0.00
2018-12-26T16:52:42.606Z,0.00
2018-12-26T16:55:11.221Z,0.00
2018-12-26T16:57:39.792Z,0.10
2018-12-26T17:00:09.152Z,0.00
2018-12-26T17:02:37.753Z,0.10
2018-12-26T17:05:06.356Z,0.10
2018-12-26T17:07:34.937Z,0.10
2018-12-26T17:10:03.829Z,0.10
2018-12-26T17:12:32.412Z,0.10
2018-12-26T17:15:01.216Z,0.20
2018-12-26T17:17:31.964Z,0.10
2018-12-26T17:20:00.545Z,0.20
2018-12-26T17:22:29.128Z,0.20
2018-12-26T17:24:57.707Z,0.20
2018-12-26T17:27:26.395Z,0.10
2018-12-26T17:29:54.978Z,0.10
2018-12-26T17:32:23.925Z,0.20
2018-12-26T17:34:52.492Z,0.10
2018-12-26T17:37:22.091Z,0.20
2018-12-26T17:39:50.672Z,0.20
2018-12-26T17:42:19.236Z,0.20
2018-12-26T17:44:48.854Z,0.30
2018-12-26T17:47:17.422Z,0.20
2018-12-26T17:49:46.016Z,0.10
2018-12-26T17:52:15.073Z,0.20
2018-12-26T17:55:21.129Z,0.10
2018-12-26T17:57:52.095Z,0.10
2018-12-26T18:00:52.379Z,0.20
2018-12-26T18:03:20.978Z,0.20
2018-12-26T18:05:49.530Z,0.10
2018-12-26T18:08:18.113Z,0.10
2018-12-26T18:10:46.692Z,0.20
2018-12-26T18:13:15.259Z,0.20
2018-12-26T18:15:43.850Z,0.20
2018-12-26T18:18:12.435Z,0.20
2018-12-26T18:20:42.044Z,0.20
2018-12-26T18:23:10.616Z,0.20
2018-12-26T18:29:08.531Z,0.20
2018-12-26T18:31:37.158Z,0.30
2018-12-26T18:34:06.090Z,0.30
2018-12-26T18:36:34.668Z,0.20
2018-12-26T18:39:04.706Z,0.30
2018-12-26T18:41:33.268Z,0.20
2018-12-26T18:44:01.901Z,0.30
2018-12-26T18:46:30.456Z,0.30
2018-12-26T18:52:54.626Z,0.30
2018-12-26T18:55:23.208Z,0.40
2018-12-26T18:57:51.861Z,0.40
2018-12-26T19:00:20.627Z,0.40
2018-12-26T19:06:30.085Z,0.30
2018-12-26T19:08:58.661Z,0.30
2018-12-26T19:11:27.251Z,0.30
2018-12-26T19:17:24.617Z,0.30
2018-12-26T19:19:53.216Z,0.20
2018-12-26T19:22:21.796Z,0.30
2018-12-26T19:24:50.372Z,0.20
2018-12-26T19:27:18.967Z,0.20
2018-12-26T19:29:48.767Z,0.30
2018-12-26T19:32:18.650Z,0.30
2018-12-26T19:34:47.228Z,0.30
2018-12-26T19:37:15.882Z,0.40
2018-12-26T19:39:44.459Z,0.40
2018-12-26T19:42:13.046Z,0.40
2018-12-26T19:44:42.692Z,0.40
2018-12-26T19:47:11.249Z,0.40
2018-12-26T19:49:39.838Z,0.40
2018-12-26T19:55:37.214Z,0.50
2018-12-26T20:01:34.602Z,0.30
2018-12-26T20:07:44.507Z,0.30
2018-12-26T20:10:13.178Z,0.30
2018-12-26T20:12:41.749Z,0.30
2018-12-26T20:15:10.318Z,0.40
2018-12-26T20:21:08.876Z,0.40
2018-12-26T20:23:38.424Z,0.40
2018-12-26T20:26:07.086Z,0.40
2018-12-26T20:28:37.199Z,0.40
2018-12-26T20:31:05.748Z,0.40
2018-12-26T20:33:34.313Z,0.40
2018-12-26T20:36:02.886Z,0.40
2018-12-26T20:38:31.481Z,0.50
2018-12-26T20:41:00.051Z,0.40
2018-12-26T20:43:28.639Z,0.40
2018-12-26T20:45:57.464Z,0.40
2018-12-26T20:48:26.051Z,0.50
2018-12-26T20:50:55.073Z,0.50
2018-12-26T20:53:23.657Z,0.50
2018-12-26T20:55:52.216Z,0.50
2018-12-26T20:58:20.780Z,0.50
2018-12-26T21:00:49.558Z,0.50
2018-12-26T21:03:18.133Z,0.50
2018-12-26T21:05:46.694Z,0.50
2018-12-26T21:08:15.261Z,0.60
2018-12-26T21:10:43.827Z,0.50
2018-12-26T21:13:12.400Z,0.60
2018-12-26T21:15:41.008Z,0.50
2018-12-26T21:18:09.675Z,0.60
2018-12-26T21:20:38.236Z,0.50
2018-12-26T21:23:06.797Z,0.60
2018-12-26T21:25:35.372Z,0.60
2018-12-26T21:28:03.961Z,0.60
2018-12-26T21:30:32.528Z,0.60
2018-12-26T21:33:02.675Z,0.50
2018-12-26T21:35:31.600Z,0.50
2018-12-26T21:38:00.160Z,0.40
2018-12-26T21:40:28.732Z,0.10
2018-12-26T21:42:57.301Z,0.10
2018-12-26T21:45:25.881Z,0.00
2018-12-26T21:47:56.696Z,0.00
2018-12-26T21:50:25.285Z,0.10
2018-12-26T21:52:55.645Z,0.10
2018-12-26T21:55:24.184Z,0.10
2018-12-26T21:57:52.751Z,0.10
2018-12-26T22:00:21.328Z,0.10
2018-12-26T22:02:51.128Z,0.10
2018-12-26T22:05:19.784Z,0.10
2018-12-26T22:07:48.354Z,0.20
2018-12-26T22:10:16.927Z,0.20
2018-12-26T22:12:45.503Z,0.30
2018-12-26T22:15:14.112Z,0.30
2018-12-26T22:17:42.676Z,0.30
2018-12-26T22:20:11.275Z,0.30
2018-12-26T22:22:39.840Z,0.20
2018-12-26T22:25:08.420Z,0.20
2018-12-26T22:27:36.976Z,0.10
2018-12-26T22:30:06.935Z,0.10
2018-12-26T22:32:35.487Z,0.20
2018-12-26T22:35:04.108Z,0.20
2018-12-26T22:37:34.192Z,0.00
2018-12-26T22:40:02.761Z,-0.10
2018-12-26T22:42:31.339Z,-0.10
2018-12-26T22:44:59.896Z,0.00
2018-12-26T22:47:28.480Z,-0.10
2018-12-26T22:49:57.048Z,-0.10
2018-12-26T22:52:27.060Z,-0.10
2018-12-26T22:54:55.642Z,0.00
2018-12-26T22:57:24.214Z,0.10
2018-12-26T22:59:52.625Z,0.10
2018-12-26T23:02:21.585Z,0.20
2018-12-26T23:04:50.160Z,0.20
2018-12-26T23:07:18.792Z,0.20
2018-12-26T23:09:47.441Z,0.20
2018-12-26T23:12:17.569Z,0.20
2018-12-26T23:14:46.204Z,0.20
2018-12-26T23:17:14.992Z,0.20
2018-12-26T23:19:43.571Z,0.00
2018-12-26T23:22:12.184Z,-0.10
2018-12-26T23:24:41.100Z,-0.10
2018-12-26T23:27:11.169Z,0.00
2018-12-26T23:29:39.799Z,0.10
2018-12-26T23:32:10.094Z,0.10
2018-12-26T23:34:40.180Z,0.10
2018-12-26T23:37:08.752Z,0.10
2018-12-26T23:39:37.479Z,0.10
2018-12-26T23:42:06.165Z,0.10
2018-12-26T23:44:35.396Z,0.20
2018-12-26T23:47:06.480Z,0.10
2018-12-26T23:49:35.470Z,0.20
2018-12-26T23:52:04.249Z,0.20
2018-12-26T23:54:34.141Z,0.20
2018-12-26T23:57:02.716Z,0.10
2018-12-26T23:59:31.288Z,-0.10
